createdAt,value
2023-01-28T00:07:53.268Z,3.59
2023-01-28T00:17:53.404Z,3.42
2023-01-28T00:27:53.331Z,3.42
2023-01-28T00:37:53.649Z,3.56
2023-01-28T00:47:54.459Z,3.60
2023-01-28T00:57:54.349Z,3.41
2023-01-28T01:07:54.375Z,3.14
2023-01-28T01:17:54.528Z,2.84
2023-01-28T01:27:54.348Z,2.56
2023-01-28T01:37:54.443Z,2.34
2023-01-28T01:47:54.490Z,2.18
2023-01-28T01:57:54.574Z,2.08
2023-01-28T02:07:55.031Z,2.03
2023-01-28T02:17:55.414Z,1.94
2023-01-28T02:27:55.470Z,1.85
2023-01-28T02:37:55.584Z,1.80
2023-01-28T02:47:58.703Z,1.89
2023-01-28T02:57:58.604Z,2.19
2023-01-28T03:07:58.451Z,2.55
2023-01-28T03:18:17.028Z,2.85
2023-01-28T03:28:36.403Z,3.08
2023-01-28T03:38:43.163Z,3.25
2023-01-28T03:48:45.047Z,3.36
2023-01-28T03:58:53.780Z,3.38
2023-01-28T04:09:13.959Z,3.39
2023-01-28T04:19:15.939Z,3.45
2023-01-28T04:29:16.693Z,3.49
2023-01-28T04:39:18.510Z,3.49
2023-01-28T04:49:26.315Z,3.47
2023-01-28T04:59:26.616Z,3.45
2023-01-28T05:09:26.628Z,3.43
2023-01-28T05:19:26.720Z,3.39
2023-01-28T05:29:27.619Z,3.36
2023-01-28T05:39:27.651Z,3.35
2023-01-28T05:49:35.359Z,3.35
2023-01-28T05:59:35.785Z,3.36
2023-01-28T06:09:36.084Z,3.35
2023-01-28T06:19:36.929Z,3.35
2023-01-28T06:29:36.650Z,3.34
2023-01-28T06:39:36.660Z,3.31
2023-01-28T06:49:36.680Z,3.25
2023-01-28T06:59:36.705Z,3.20
2023-01-28T07:09:36.736Z,3.18
2023-01-28T07:19:36.866Z,3.16
2023-01-28T07:29:36.699Z,3.16
2023-01-28T07:39:36.763Z,3.18
2023-01-28T07:49:38.683Z,3.22
2023-01-28T07:59:38.723Z,3.29
2023-01-28T08:09:38.711Z,3.37
2023-01-28T08:19:38.823Z,3.44
2023-01-28T08:29:38.739Z,3.58
2023-01-28T08:39:38.758Z,3.80
2023-01-28T08:49:38.891Z,4.02
2023-01-28T08:59:41.469Z,4.22
2023-01-28T09:09:41.812Z,4.42
2023-01-28T09:19:41.909Z,4.61
2023-01-28T09:29:41.828Z,4.72
2023-01-28T09:39:41.867Z,4.80
2023-01-28T09:49:41.880Z,4.93
2023-01-28T09:59:41.955Z,5.03
2023-01-28T10:09:42.060Z,5.03
2023-01-28T10:19:41.913Z,5.06
2023-01-28T10:29:43.839Z,5.14
2023-01-28T10:39:43.912Z,5.24
2023-01-28T10:49:43.940Z,5.30
2023-01-28T10:59:44.058Z,5.42
2023-01-28T11:09:43.969Z,5.67
2023-01-28T11:19:43.952Z,5.86
2023-01-28T11:29:44.071Z,5.96
2023-01-28T11:39:44.087Z,6.03
2023-01-28T11:49:43.994Z,6.02
2023-01-28T11:59:44.148Z,5.90
2023-01-28T12:09:44.032Z,5.76
2023-01-28T12:19:44.033Z,5.70
2023-01-28T12:29:46.007Z,5.62
2023-01-28T12:39:46.086Z,5.48
2023-01-28T12:49:46.349Z,5.42
2023-01-28T12:59:46.317Z,5.48
2023-01-28T13:09:49.438Z,5.54
2023-01-28T13:19:49.135Z,5.34
2023-01-28T13:29:49.682Z,4.88
2023-01-28T13:39:50.287Z,4.43
2023-01-28T13:49:50.248Z,4.14
2023-01-28T13:59:50.217Z,4.08
2023-01-28T14:09:50.162Z,4.04
2023-01-28T14:19:50.305Z,4.02
2023-01-28T14:29:50.287Z,4.00
2023-01-28T14:39:50.299Z,3.93
2023-01-28T14:49:50.279Z,3.79
2023-01-28T14:59:50.301Z,3.59
2023-01-28T15:09:50.222Z,3.37
2023-01-28T15:19:50.275Z,3.19
2023-01-28T15:29:50.522Z,3.01
2023-01-28T15:39:50.292Z,2.81
2023-01-28T15:49:50.398Z,2.58
2023-01-28T15:59:50.855Z,2.34
2023-01-28T16:09:51.270Z,2.08
2023-01-28T16:19:51.315Z,1.84
2023-01-28T16:29:51.349Z,1.64
2023-01-28T16:39:51.301Z,1.42
2023-01-28T16:49:51.426Z,1.16
2023-01-28T16:59:51.558Z,0.91
2023-01-28T17:09:51.452Z,0.70
2023-01-28T17:19:51.381Z,0.53
2023-01-28T17:29:51.404Z,0.36
2023-01-28T17:39:51.374Z,0.21
2023-01-28T17:49:51.450Z,0.05
2023-01-28T17:59:51.652Z,-0.09
2023-01-28T18:09:53.774Z,-0.21
2023-01-28T18:19:54.672Z,-0.34
2023-01-28T18:29:57.151Z,-0.46
2023-01-28T18:39:57.549Z,-0.54
2023-01-28T18:49:57.508Z,-0.62
2023-01-28T18:59:57.659Z,-0.68
2023-01-28T19:09:57.562Z,-0.75
2023-01-28T19:19:57.617Z,-0.82
2023-01-28T19:29:57.532Z,-0.90
2023-01-28T19:39:57.560Z,-0.97
2023-01-28T19:49:57.616Z,-1.04
2023-01-28T19:59:57.603Z,-1.12
2023-01-28T20:09:57.566Z,-1.20
2023-01-28T20:19:57.621Z,-1.27
2023-01-28T20:29:57.598Z,-1.34
2023-01-28T20:39:57.739Z,-1.37
2023-01-28T20:49:57.595Z,-1.38
2023-01-28T20:59:57.734Z,-1.42
2023-01-28T21:09:57.745Z,-1.46
2023-01-28T21:19:57.801Z,-1.51
2023-01-28T21:29:57.709Z,-1.59
2023-01-28T21:40:00.772Z,-1.67
2023-01-28T21:50:00.735Z,-1.73
2023-01-28T22:00:01.153Z,-1.79
2023-01-28T22:10:01.957Z,-1.85
2023-01-28T22:20:02.059Z,-1.90
2023-01-28T22:30:01.754Z,-1.94
2023-01-28T22:40:01.892Z,-1.98
2023-01-28T22:50:01.847Z,-2.04
2023-01-28T23:00:01.752Z,-2.08
2023-01-28T23:10:01.924Z,-2.10
2023-01-28T23:20:24.191Z,-2.13
2023-01-28T23:30:24.848Z,-2.17
2023-01-28T23:40:26.603Z,-2.21
2023-01-28T23:50:26.803Z,-2.23
